»·PEaware :: N365EA KSNA-KSBA

N365EA :: KSNA-KSBA

FLIGHT INFORMATION

Flight Status: Arrived
Operator: Privately registered:
United States
More flights under this callsign
Pilot: Brad S. (6004)
Aircraft: CESSNA 550 CITATION 2/S2/BRAVO
(C550)
More flights by this aircraft type
Origin: KSNA John Wayne-Orange Co
United States
Destination: KSBA Santa Barbara Mun
United States
More flights between these airports :: More routes between these airports
Route: +CHANNL3 SXC V208 VTU KWANG
File this flight plan on PilotEdge
Remarks: Training & Stream
Altitude:
(Current/Filed)
12,000ft
Speed:
(Current/Filed)
350kts
Departed: 02-Dec-18 04:01 PM
Arrived: 02-Dec-18 04:35 PM
Distance/Time
Traveled:
108nm/0:33
Distance/Time
To Go:
Arrived

Flight Plot

Page will automatically refresh every two minutes.

Flight plan parsing failed; only flown route is shown


Map Options




Map Legend


Flown Route
Filed Route
Departure Airport
Arrival Airport
Navaid (VOR, NDB)
Fix

Horizontal Profiles

Position Reports

Time Latitude Longitude Heading Altitude Ground
Speed
02-Dec-18 15:26 33.676108 -117.870881 219 61ft 0kts
02-Dec-18 15:27 33.676108 -117.870881 219 61ft 0kts
02-Dec-18 15:28 33.676108 -117.870881 219 61ft 0kts
02-Dec-18 15:29 33.676108 -117.870881 219 61ft 0kts
02-Dec-18 15:30 33.676108 -117.870881 219 61ft 0kts
02-Dec-18 15:31 33.676108 -117.870881 219 61ft 0kts
02-Dec-18 15:32 33.676108 -117.870881 219 61ft 0kts
02-Dec-18 15:33 33.676108 -117.870881 219 61ft 0kts
02-Dec-18 15:34 33.676108 -117.870881 219 61ft 0kts
02-Dec-18 15:35 33.676108 -117.870881 219 61ft 0kts
02-Dec-18 15:36 33.676108 -117.870881 219 61ft 0kts
02-Dec-18 15:37 33.676108 -117.870881 219 61ft 0kts
02-Dec-18 15:38 33.676108 -117.870881 219 61ft 0kts
02-Dec-18 15:39 33.676108 -117.870881 219 61ft 0kts
02-Dec-18 15:40 33.676108 -117.870881 219 61ft 0kts
02-Dec-18 15:41 33.676108 -117.870881 219 61ft 0kts
02-Dec-18 15:42 33.676108 -117.870881 219 61ft 0kts
02-Dec-18 15:43 33.676108 -117.870881 219 61ft 0kts
02-Dec-18 15:44 33.676108 -117.870881 219 61ft 0kts
02-Dec-18 15:45 33.676108 -117.870881 219 61ft 0kts
02-Dec-18 15:46 33.676108 -117.870881 219 61ft 0kts
02-Dec-18 15:47 33.676108 -117.870881 219 61ft 0kts
02-Dec-18 15:48 33.676108 -117.870881 219 61ft 0kts
02-Dec-18 15:49 33.676108 -117.870881 219 61ft 0kts
02-Dec-18 15:50 33.676108 -117.870881 219 61ft 0kts
02-Dec-18 15:51 33.676108 -117.870881 219 61ft 0kts
02-Dec-18 15:52 33.676108 -117.870881 219 61ft 0kts
02-Dec-18 15:53 33.676108 -117.870881 219 61ft 0kts
02-Dec-18 15:54 33.676108 -117.870881 219 61ft 0kts
02-Dec-18 15:55 33.676108 -117.870881 219 61ft 0kts
02-Dec-18 15:56 33.676108 -117.870881 219 61ft 0kts
02-Dec-18 15:57 33.675748 -117.870556 120 61ft 6kts
02-Dec-18 15:58 33.677078 -117.869452 27 61ft 8kts
02-Dec-18 15:59 33.679525 -117.867989 13 61ft 8kts
02-Dec-18 16:00 33.681793 -117.866584 48 61ft 7kts
02-Dec-18 16:01 33.681927 -117.866038 97 61ft 0kts
02-Dec-18 16:02 33.681927 -117.866038 97 61ft 0kts
02-Dec-18 16:03 33.681330 -117.865259 206 61ft 0kts
02-Dec-18 16:04 33.653420 -117.882883 209 1325ft 195kts
02-Dec-18 16:05 33.594111 -117.894632 189 4414ft 253kts
02-Dec-18 16:06 33.526929 -117.924167 213 7317ft 273kts
02-Dec-18 16:07 33.459121 -117.967284 214 9964ft 290kts
02-Dec-18 16:08 33.388052 -118.021984 222 10035ft 307kts
02-Dec-18 16:09 33.373028 -118.109697 275 10040ft 278kts
02-Dec-18 16:10 33.374152 -118.202058 275 10025ft 279kts
02-Dec-18 16:11 33.374616 -118.294799 275 10028ft 280kts
02-Dec-18 16:12 33.374955 -118.387839 275 10030ft 280kts
02-Dec-18 16:13 33.407460 -118.466708 310 10029ft 270kts
02-Dec-18 16:14 33.455791 -118.535376 311 10028ft 270kts
02-Dec-18 16:15 33.504114 -118.603970 311 10028ft 270kts
02-Dec-18 16:16 33.550783 -118.670623 310 10032ft 270kts
02-Dec-18 16:17 33.598966 -118.739604 310 10031ft 270kts
02-Dec-18 16:18 33.647095 -118.808640 310 10026ft 270kts
02-Dec-18 16:19 33.695073 -118.877590 309 10026ft 270kts
02-Dec-18 16:20 33.743053 -118.946673 309 10028ft 269kts
02-Dec-18 16:21 33.794914 -119.010180 331 10033ft 272kts
02-Dec-18 16:22 33.870489 -119.024321 350 10036ft 279kts
02-Dec-18 16:23 33.947541 -119.032050 350 10036ft 279kts
02-Dec-18 16:24 34.024466 -119.041150 339 9792ft 282kts
02-Dec-18 16:25 34.072743 -119.110962 304 9083ft 275kts
02-Dec-18 16:26 34.114975 -119.184598 305 9039ft 266kts
02-Dec-18 16:27 34.157472 -119.256836 305 9039ft 264kts
02-Dec-18 16:28 34.199916 -119.328714 305 9039ft 264kts
02-Dec-18 16:29 34.242402 -119.400798 305 9039ft 264kts
02-Dec-18 16:30 34.281186 -119.466714 304 7806ft 222kts
02-Dec-18 16:31 34.315791 -119.525661 303 6297ft 212kts
02-Dec-18 16:32 34.343690 -119.575137 297 4989ft 210kts
02-Dec-18 16:33 34.368690 -119.634258 295 4058ft 192kts
02-Dec-18 16:34 34.393381 -119.690415 295 3273ft 200kts
02-Dec-18 16:35 34.418818 -119.746899 292 2307ft 184kts
02-Dec-18 16:36 34.428054 -119.784229 271 1290ft 96kts
02-Dec-18 16:37 34.428296 -119.815298 269 425ft 91kts
02-Dec-18 16:38 34.427750 -119.842410 267 17ft 39kts
02-Dec-18 16:39 34.428876 -119.845687 5 17ft 8kts
02-Dec-18 16:40 34.429057 -119.845440 143 17ft 0kts

Navigation Log

Ident Type
Flight plan parsing failed, navigation log unavailable